Time;durP1;ratioP1;P1;durP2;ratioP2;P2;SDS_P1;SDS_P2;PMS_P1;PMS_P2;Temp;Humidity;BMP_temperature;BMP_pressure;BME280_temperature;BME280_humidity;BME280_pressure;Samples;Min_cycle;Max_cycle;Signal;HPM_P1;HPM_P2
2021/09/09 00:02:13;;;;;;;12.05;7.18;;;;;;;15.15;100.00;100513.47;5081900;28;20418;-82
2021/09/09 00:04:38;;;;;;;11.18;7.35;;;;;;;15.03;100.00;100506.09;5081808;28;20020;-83
2021/09/09 00:07:04;;;;;;;11.25;7.78;;;;;;;15.10;100.00;100506.72;5081227;28;20024;-82
2021/09/09 00:09:29;;;;;;;13.98;8.10;;;;;;;15.01;100.00;100507.06;5096797;28;20049;-82
2021/09/09 00:11:54;;;;;;;13.82;7.60;;;;;;;15.01;100.00;100501.81;5078330;28;20016;-83
2021/09/09 00:14:20;;;;;;;14.27;7.38;;;;;;;15.02;100.00;100496.53;5097023;28;20365;-82
2021/09/09 00:16:45;;;;;;;16.55;8.40;;;;;;;15.00;100.00;100502.75;5078413;28;20024;-82
2021/09/09 00:19:10;;;;;;;12.65;7.68;;;;;;;14.95;100.00;100498.53;5078506;28;20543;-82
2021/09/09 00:21:36;;;;;;;14.60;8.02;;;;;;;14.99;100.00;100493.19;5078289;28;20118;-82
2021/09/09 00:24:01;;;;;;;11.13;7.68;;;;;;;14.99;100.00;100490.56;5096368;28;20028;-82
2021/09/09 00:26:26;;;;;;;11.95;7.40;;;;;;;14.91;100.00;100496.94;5077714;28;20016;-82
2021/09/09 00:28:52;;;;;;;12.95;7.72;;;;;;;14.78;100.00;100490.47;5077317;28;20035;-82
2021/09/09 00:31:17;;;;;;;12.65;8.18;;;;;;;14.81;100.00;100489.50;5077421;28;20383;-82
2021/09/09 00:33:44;;;;;;;11.77;7.63;;;;;;;14.73;100.00;100488.03;5077974;28;20073;-82
2021/09/09 00:36:10;;;;;;;11.70;7.15;;;;;;;14.79;100.00;100484.34;5096277;28;20020;-83
2021/09/09 00:38:35;;;;;;;12.57;7.60;;;;;;;14.93;100.00;100478.59;5077255;28;20028;-83
2021/09/09 00:41:00;;;;;;;13.07;7.90;;;;;;;14.88;100.00;100475.31;5077514;28;20038;-83
2021/09/09 00:43:26;;;;;;;11.38;7.22;;;;;;;14.82;100.00;100476.41;5077368;28;20073;-83
2021/09/09 00:45:53;;;;;;;12.70;8.25;;;;;;;14.78;100.00;100473.94;5095500;28;20028;-83
2021/09/09 00:48:18;;;;;;;11.10;7.63;;;;;;;14.78;100.00;100476.56;5077113;28;20022;-83
2021/09/09 00:50:44;;;;;;;14.70;8.02;;;;;;;14.72;100.00;100472.44;5077412;28;20020;-82
2021/09/09 00:53:09;;;;;;;13.52;7.72;;;;;;;14.70;100.00;100471.63;5077761;28;20024;-82
2021/09/09 00:55:35;;;;;;;11.98;7.35;;;;;;;14.74;100.00;100470.59;5077934;28;20396;-82
2021/09/09 00:58:00;;;;;;;12.52;7.72;;;;;;;14.66;100.00;100472.66;5095903;28;20081;-82
2021/09/09 01:00:25;;;;;;;14.32;7.50;;;;;;;14.72;100.00;100469.81;5078057;28;20519;-82
2021/09/09 01:02:50;;;;;;;13.95;7.80;;;;;;;14.75;100.00;100472.31;5096455;28;20430;-82
2021/09/09 01:05:16;;;;;;;12.68;7.75;;;;;;;14.73;100.00;100468.91;5078245;28;20166;-82
2021/09/09 01:07:41;;;;;;;12.70;7.93;;;;;;;14.72;100.00;100464.59;5078372;28;20016;-82
2021/09/09 01:10:07;;;;;;;16.45;8.45;;;;;;;14.77;100.00;100465.25;5080247;28;20506;-82
2021/09/09 01:12:32;;;;;;;12.98;7.90;;;;;;;14.71;100.00;100466.34;5083074;28;20442;-82
2021/09/09 01:14:57;;;;;;;17.38;7.43;;;;;;;14.65;100.00;100460.50;5084158;28;20026;-82
2021/09/09 01:17:23;;;;;;;11.82;7.90;;;;;;;14.64;100.00;100459.66;5103741;28;20032;-82
2021/09/09 01:19:48;;;;;;;12.23;7.88;;;;;;;14.53;100.00;100459.16;5085301;28;20020;-82
2021/09/09 01:22:13;;;;;;;12.05;8.02;;;;;;;14.59;100.00;100463.31;5105175;28;20074;-82
2021/09/09 01:24:39;;;;;;;12.75;8.63;;;;;;;14.54;100.00;100466.13;5104825;28;20059;-82
2021/09/09 01:27:06;;;;;;;13.73;7.70;;;;;;;14.40;100.00;100463.94;5105249;28;20020;-82
2021/09/09 01:29:38;;;;;;;12.88;7.95;;;;;;;14.32;100.00;100463.41;5085874;28;20016;-82
2021/09/09 01:32:05;;;;;;;13.38;7.97;;;;;;;14.31;100.00;100466.88;5104495;28;20028;-83
2021/09/09 01:34:31;;;;;;;11.68;8.65;;;;;;;14.23;100.00;100464.56;5102307;28;20070;-82
2021/09/09 01:36:57;;;;;;;11.43;7.63;;;;;;;14.32;100.00;100458.16;5101249;28;20028;-82
2021/09/09 01:39:23;;;;;;;15.65;8.23;;;;;;;14.24;100.00;100460.19;5082275;28;20023;-83
2021/09/09 01:41:54;;;;;;;10.95;7.38;;;;;;;14.20;100.00;100456.00;5081777;28;20028;-82
2021/09/09 01:44:20;;;;;;;13.98;8.55;;;;;;;14.15;100.00;100461.34;5099765;28;20032;-82
2021/09/09 01:46:47;;;;;;;12.55;7.88;;;;;;;14.12;100.00;100448.41;5080833;28;20399;-82
2021/09/09 01:49:12;;;;;;;12.82;7.88;;;;;;;14.15;100.00;100452.69;5081842;28;20024;-82
2021/09/09 01:51:38;;;;;;;22.58;8.95;;;;;;;14.13;100.00;100454.47;5083870;28;20024;-82
2021/09/09 01:54:03;;;;;;;14.82;8.38;;;;;;;14.11;100.00;100451.09;5102787;28;20047;-82
2021/09/09 01:56:29;;;;;;;15.68;8.98;;;;;;;14.10;100.00;100450.25;5102909;28;20020;-82
2021/09/09 01:58:54;;;;;;;13.73;8.60;;;;;;;14.08;100.00;100448.59;5085737;28;20498;-82
2021/09/09 02:01:20;;;;;;;12.20;8.23;;;;;;;14.11;100.00;100448.50;5085331;28;20024;-82
2021/09/09 02:03:45;;;;;;;16.98;8.57;;;;;;;13.99;100.00;100442.78;5103463;28;20114;-83
2021/09/09 02:06:12;;;;;;;14.65;8.68;;;;;;;14.04;100.00;100445.25;5085613;28;20049;-82
2021/09/09 02:08:37;;;;;;;13.85;8.50;;;;;;;13.99;100.00;100439.31;5085429;28;20027;-82
2021/09/09 02:11:02;;;;;;;15.30;8.18;;;;;;;14.02;100.00;100444.44;5084970;28;20046;-82
2021/09/09 02:13:28;;;;;;;13.32;8.55;;;;;;;14.05;100.00;100436.50;5086862;22;1012604;-82
2021/09/09 02:15:53;;;;;;;19.35;9.60;;;;;;;14.03;100.00;100435.69;5066566;28;20032;-82
2021/09/09 02:18:18;;;;;;;12.75;8.73;;;;;;;14.03;100.00;100438.31;5068791;28;20115;-82
2021/09/09 02:20:43;;;;;;;15.80;9.55;;;;;;;14.00;100.00;100436.66;5069976;28;20028;-82
2021/09/09 02:23:09;;;;;;;15.48;9.27;;;;;;;14.01;100.00;100435.75;5069325;28;20035;-81
2021/09/09 02:25:34;;;;;;;16.17;8.88;;;;;;;14.00;100.00;100433.19;5069277;28;20029;-81
2021/09/09 02:28:00;;;;;;;14.77;9.05;;;;;;;14.06;100.00;100425.16;5068909;28;20024;-81
2021/09/09 02:30:26;;;;;;;16.05;9.50;;;;;;;13.92;100.00;100420.44;5060449;28;20473;-81
2021/09/09 02:32:52;;;;;;;13.30;8.75;;;;;;;13.94;100.00;100425.59;5060494;28;20107;-81
2021/09/09 02:35:17;;;;;;;17.27;8.63;;;;;;;13.88;100.00;100417.97;5079079;28;20460;-82
2021/09/09 02:37:42;;;;;;;14.65;9.55;;;;;;;13.82;100.00;100419.91;5061353;28;20086;-82
2021/09/09 02:40:09;;;;;;;14.57;9.10;;;;;;;13.77;100.00;100420.94;5061678;28;20480;-82
2021/09/09 02:42:35;;;;;;;14.02;9.02;;;;;;;13.82;100.00;100413.81;5079881;28;20104;-82
2021/09/09 02:45:00;;;;;;;13.60;8.57;;;;;;;13.82;100.00;100412.06;5080099;28;20070;-81
2021/09/09 02:47:25;;;;;;;13.85;9.50;;;;;;;13.80;100.00;100413.03;5080874;28;20032;-81
2021/09/09 02:49:51;;;;;;;13.65;9.25;;;;;;;13.80;100.00;100402.59;5063632;28;20396;-81
2021/09/09 02:52:16;;;;;;;14.63;9.43;;;;;;;13.74;100.00;100402.81;5063710;28;20017;-81
2021/09/09 02:54:41;;;;;;;11.85;8.70;;;;;;;13.67;100.00;100406.50;5064111;28;20028;-81
2021/09/09 02:57:07;;;;;;;16.02;8.50;;;;;;;13.65;100.00;100403.13;5081647;28;20028;-81
2021/09/09 02:59:32;;;;;;;14.93;9.65;;;;;;;13.63;100.00;100407.53;5064320;28;20089;-81
2021/09/09 03:01:57;;;;;;;14.27;9.35;;;;;;;13.61;100.00;100397.16;5081821;28;20075;-81
2021/09/09 03:04:23;;;;;;;14.50;8.65;;;;;;;13.63;100.00;100384.06;5063922;28;20119;-81
2021/09/09 03:06:48;;;;;;;16.17;9.45;;;;;;;13.63;100.00;100390.13;5081990;28;20050;-81
2021/09/09 03:09:13;;;;;;;14.32;9.23;;;;;;;13.62;100.00;100384.97;5064582;28;20056;-81
2021/09/09 03:11:38;;;;;;;15.68;9.93;;;;;;;13.56;100.00;100391.25;5082657;28;20024;-81
2021/09/09 03:14:03;;;;;;;16.95;9.93;;;;;;;13.51;100.00;100393.13;5082478;28;20494;-81
2021/09/09 03:16:29;;;;;;;14.90;10.27;;;;;;;13.55;100.00;100382.56;5064883;28;20028;-81
2021/09/09 03:18:54;;;;;;;16.25;10.20;;;;;;;13.52;100.00;100382.69;5064849;28;20016;-81
2021/09/09 03:21:19;;;;;;;15.27;9.88;;;;;;;13.45;100.00;100377.69;5065062;28;20103;-81
2021/09/09 03:23:45;;;;;;;16.25;9.80;;;;;;;13.41;100.00;100374.34;5082888;28;20032;-81
2021/09/09 03:26:10;;;;;;;16.35;9.77;;;;;;;13.36;100.00;100376.25;5064304;28;20028;-81
2021/09/09 03:28:35;;;;;;;16.60;9.50;;;;;;;13.35;100.00;100375.41;5065599;28;20052;-81
2021/09/09 03:31:01;;;;;;;15.43;9.93;;;;;;;13.34;100.00;100365.91;5083343;28;20048;-81
2021/09/09 03:33:26;;;;;;;14.15;10.05;;;;;;;13.30;100.00;100359.09;5064347;28;20437;-81
2021/09/09 03:35:54;;;;;;;23.42;10.82;;;;;;;13.29;100.00;100356.53;5064162;28;20032;-83
2021/09/09 03:38:20;;;;;;;16.60;9.75;;;;;;;13.22;100.00;100358.44;5062221;28;20399;-83
2021/09/09 03:40:45;;;;;;;14.30;9.85;;;;;;;13.21;100.00;100361.09;5080971;28;20024;-83
2021/09/09 03:43:10;;;;;;;18.08;10.52;;;;;;;13.22;100.00;100352.38;5081293;28;20074;-83
2021/09/09 03:45:36;;;;;;;19.10;10.77;;;;;;;13.23;100.00;100354.94;5063383;28;20032;-83
2021/09/09 03:48:01;;;;;;;14.48;10.43;;;;;;;13.16;100.00;100349.97;5062865;28;20020;-83
2021/09/09 03:50:26;;;;;;;16.67;11.65;;;;;;;13.14;100.00;100345.66;5064104;28;20430;-83
2021/09/09 03:52:51;;;;;;;15.90;10.48;;;;;;;13.19;100.00;100349.88;5063532;28;20042;-83
2021/09/09 03:55:17;;;;;;;15.35;9.77;;;;;;;13.14;100.00;100343.06;5063408;28;20028;-82
2021/09/09 03:57:42;;;;;;;17.48;10.52;;;;;;;13.13;100.00;100340.50;5063232;28;20020;-82
2021/09/09 04:00:08;;;;;;;15.35;9.65;;;;;;;13.12;100.00;100341.41;5082101;28;20027;-82
2021/09/09 04:02:34;;;;;;;17.75;11.13;;;;;;;13.12;100.00;100347.47;5082233;28;20107;-81
2021/09/09 04:04:59;;;;;;;16.70;9.95;;;;;;;13.15;100.00;100343.94;5083547;28;20107;-82
2021/09/09 04:07:24;;;;;;;15.07;11.10;;;;;;;13.10;100.00;100346.66;5065550;28;20101;-82
2021/09/09 04:09:50;;;;;;;16.80;10.63;;;;;;;13.10;100.00;100335.41;5065347;28;20034;-82
2021/09/09 04:12:15;;;;;;;16.85;11.35;;;;;;;13.09;100.00;100338.91;5065319;28;20020;-82
2021/09/09 04:14:40;;;;;;;17.77;11.07;;;;;;;13.02;100.00;100337.38;5064622;28;20027;-82
2021/09/09 04:17:05;;;;;;;18.60;11.32;;;;;;;12.97;100.00;100334.94;5064297;28;20107;-81
2021/09/09 04:19:31;;;;;;;19.75;10.98;;;;;;;12.90;100.00;100330.84;5084115;28;20040;-82
2021/09/09 04:21:56;;;;;;;17.92;10.65;;;;;;;12.86;100.00;100332.66;5066688;28;20053;-82
2021/09/09 04:24:22;;;;;;;18.25;11.23;;;;;;;12.79;100.00;100335.53;5065857;28;20021;-82
2021/09/09 04:26:47;;;;;;;18.95;11.25;;;;;;;12.75;100.00;100336.53;5083755;28;20028;-81
2021/09/09 04:29:13;;;;;;;18.85;10.90;;;;;;;12.74;100.00;100334.81;5066695;28;20020;-81
2021/09/09 04:31:38;;;;;;;18.63;12.02;;;;;;;12.66;100.00;100335.06;5084123;28;20028;-81
2021/09/09 04:34:03;;;;;;;19.00;11.60;;;;;;;12.66;100.00;100324.66;5066740;28;20033;-82
2021/09/09 04:36:29;;;;;;;19.90;12.43;;;;;;;12.62;100.00;100328.22;5065815;28;20025;-82
2021/09/09 04:38:54;;;;;;;15.98;11.90;;;;;;;12.63;100.00;100328.19;5084988;28;20028;-82
2021/09/09 04:41:19;;;;;;;15.73;11.15;;;;;;;12.63;100.00;100325.59;5066562;28;20102;-82
2021/09/09 04:43:46;;;;;;;20.15;12.52;;;;;;;12.63;100.00;100320.38;5065711;28;20025;-81
2021/09/09 04:46:11;;;;;;;18.08;11.95;;;;;;;12.60;100.00;100310.06;5065991;28;20033;-82
2021/09/09 04:48:37;;;;;;;17.17;12.25;;;;;;;12.58;100.00;100322.25;5083953;28;20107;-82
2021/09/09 04:51:02;;;;;;;20.10;13.02;;;;;;;12.56;100.00;100329.28;5066255;28;20030;-82
2021/09/09 04:53:27;;;;;;;17.38;11.85;;;;;;;12.54;100.00;100322.41;5066533;28;20142;-82
2021/09/09 04:55:52;;;;;;;21.58;13.13;;;;;;;12.53;100.00;100320.69;5066290;28;20024;-82
2021/09/09 04:58:18;;;;;;;19.63;12.18;;;;;;;12.50;100.00;100318.19;5085116;28;20060;-82
2021/09/09 05:00:43;;;;;;;19.83;12.25;;;;;;;12.50;100.00;100311.25;5086118;28;20024;-82
2021/09/09 05:03:08;;;;;;;19.08;12.68;;;;;;;12.49;100.00;100309.53;5068452;28;20036;-82
2021/09/09 05:05:34;;;;;;;19.45;12.18;;;;;;;12.48;100.00;100315.63;5063753;28;20039;-83
2021/09/09 05:07:59;;;;;;;18.85;11.70;;;;;;;12.50;100.00;100308.66;5067041;28;20047;-83
2021/09/09 05:10:24;;;;;;;20.35;11.77;;;;;;;12.56;100.00;100303.25;5067414;28;20024;-83
2021/09/09 05:12:50;;;;;;;17.02;11.98;;;;;;;12.56;100.00;100308.47;5066607;28;20028;-83
2021/09/09 05:15:15;;;;;;;16.15;11.55;;;;;;;12.59;100.00;100308.38;5067414;28;20036;-83
2021/09/09 05:17:41;;;;;;;17.35;12.15;;;;;;;12.60;100.00;100304.84;5085356;28;20044;-83
2021/09/09 05:20:07;;;;;;;17.58;12.07;;;;;;;12.66;100.00;100301.22;5066682;28;20029;-83
2021/09/09 05:22:33;;;;;;;19.50;11.60;;;;;;;12.67;100.00;100301.16;5085554;28;20028;-83
2021/09/09 05:25:00;;;;;;;21.00;13.20;;;;;;;12.71;100.00;100301.06;5072707;28;20027;-83
2021/09/09 05:27:25;;;;;;;18.58;11.88;;;;;;;12.75;100.00;100289.69;5072330;28;20036;-83
2021/09/09 05:29:50;;;;;;;19.10;12.27;;;;;;;12.75;100.00;100295.72;5071198;28;20091;-83
2021/09/09 05:32:16;;;;;;;23.40;12.70;;;;;;;12.80;100.00;100286.00;5071710;28;20046;-83
2021/09/09 05:34:41;;;;;;;21.35;13.27;;;;;;;12.83;100.00;100292.88;5071431;28;20024;-83
2021/09/09 05:37:06;;;;;;;19.60;12.98;;;;;;;12.86;100.00;100296.22;5071122;28;20016;-83
2021/09/09 05:39:31;;;;;;;17.65;12.30;;;;;;;12.89;100.00;100290.06;5070687;28;20082;-82
2021/09/09 05:41:57;;;;;;;19.55;12.52;;;;;;;12.93;100.00;100296.91;5070766;28;20100;-82
2021/09/09 05:44:22;;;;;;;19.30;12.40;;;;;;;12.96;100.00;100285.53;5072303;28;20067;-82
2021/09/09 05:46:47;;;;;;;17.58;12.40;;;;;;;12.99;100.00;100282.81;5071528;28;20608;-83
2021/09/09 05:49:13;;;;;;;16.05;12.40;;;;;;;13.04;100.00;100289.59;5072311;28;20091;-83
2021/09/09 05:51:38;;;;;;;17.70;11.80;;;;;;;13.10;100.00;100289.38;5071739;28;20066;-83
2021/09/09 05:54:03;;;;;;;21.35;12.43;;;;;;;13.14;100.00;100284.91;5072798;28;20530;-83
2021/09/09 05:56:29;;;;;;;17.92;12.45;;;;;;;13.21;100.00;100285.56;5089864;28;20017;-83
2021/09/09 05:58:54;;;;;;;22.13;12.57;;;;;;;13.40;100.00;100286.69;5070404;28;20395;-83
2021/09/09 06:01:19;;;;;;;22.90;13.40;;;;;;;13.70;100.00;100283.91;5073202;28;20029;-83
2021/09/09 06:03:45;;;;;;;18.52;12.25;;;;;;;13.99;100.00;100282.88;5072321;28;20499;-83
2021/09/09 06:06:15;;;;;;;19.70;12.38;;;;;;;14.24;100.00;100286.25;5072406;28;20069;-83
2021/09/09 06:08:40;;;;;;;22.08;13.10;;;;;;;14.45;100.00;100275.91;5072412;28;20021;-83
2021/09/09 06:11:05;;;;;;;18.88;12.57;;;;;;;14.78;100.00;100281.59;5072746;28;20099;-83
2021/09/09 06:13:32;;;;;;;15.85;11.80;;;;;;;15.11;100.00;100270.69;5088878;28;20084;-84
2021/09/09 06:15:57;;;;;;;19.05;12.60;;;;;;;15.54;100.00;100274.94;5071329;28;20526;-84
2021/09/09 06:18:22;;;;;;;19.60;12.93;;;;;;;15.68;100.00;100270.91;5088146;28;20028;-83
2021/09/09 06:20:48;;;;;;;17.80;12.15;;;;;;;15.62;100.00;100267.63;5087344;28;20028;-83
2021/09/09 06:23:13;;;;;;;19.40;12.40;;;;;;;15.88;100.00;100274.31;5068434;28;20071;-83
2021/09/09 06:25:38;;;;;;;16.65;11.68;;;;;;;16.16;100.00;100275.69;5086984;28;20111;-83
2021/09/09 06:28:04;;;;;;;17.80;11.50;;;;;;;16.36;100.00;100277.41;5085935;28;20484;-83
2021/09/09 06:30:29;;;;;;;19.40;11.95;;;;;;;16.37;100.00;100268.63;5067171;28;20024;-83
2021/09/09 06:32:54;;;;;;;18.38;11.68;;;;;;;16.27;100.00;100281.28;5085721;28;20531;-83
2021/09/09 06:35:20;;;;;;;16.35;10.93;;;;;;;16.45;100.00;100270.91;5083118;28;20056;-84
2021/09/09 06:37:46;;;;;;;17.85;10.07;;;;;;;16.51;100.00;100271.44;5063764;28;20028;-84
2021/09/09 06:40:11;;;;;;;18.13;10.93;;;;;;;16.83;100.00;100276.09;5067065;28;20028;-84
2021/09/09 06:42:36;;;;;;;18.40;10.50;;;;;;;16.85;100.00;100271.63;5082488;28;20025;-84
2021/09/09 06:45:02;;;;;;;17.20;10.23;;;;;;;17.43;100.00;100274.81;5063570;28;20046;-84
2021/09/09 06:47:27;;;;;;;22.27;10.93;;;;;;;17.46;100.00;100277.28;5063670;28;20505;-84
2021/09/09 06:49:53;;;;;;;21.90;13.63;;;;;;;17.16;100.00;100276.19;5063826;28;20074;-84
2021/09/09 06:52:18;;;;;;;15.70;11.07;;;;;;;17.46;100.00;100276.44;5063932;28;20464;-84
2021/09/09 06:54:43;;;;;;;18.02;9.15;;;;;;;17.56;100.00;100276.81;5080771;28;20024;-84
2021/09/09 06:57:08;;;;;;;16.27;10.75;;;;;;;17.96;100.00;100274.75;5080842;28;20033;-84
2021/09/09 06:59:34;;;;;;;18.33;9.98;;;;;;;18.57;100.00;100277.50;5062399;28;20057;-84
2021/09/09 07:01:59;;;;;;;20.83;10.77;;;;;;;18.03;100.00;100273.47;5061802;28;20028;-84
2021/09/09 07:04:24;;;;;;;18.17;10.50;;;;;;;18.36;100.00;100274.25;5081209;28;20084;-83
2021/09/09 07:06:50;;;;;;;20.35;9.77;;;;;;;19.10;100.00;100267.50;5061958;28;20536;-84
2021/09/09 07:09:15;;;;;;;17.20;10.50;;;;;;;18.62;100.00;100280.69;5061134;28;20028;-84
2021/09/09 07:11:40;;;;;;;17.27;10.07;;;;;;;18.62;100.00;100275.44;5060660;28;20032;-84
2021/09/09 07:14:05;;;;;;;16.10;10.07;;;;;;;18.55;100.00;100268.00;5077714;28;20115;-84
2021/09/09 07:16:31;;;;;;;17.52;10.38;;;;;;;18.89;100.00;100274.00;5077648;28;20067;-84
2021/09/09 07:18:56;;;;;;;19.42;9.57;;;;;;;19.41;100.00;100266.53;5060147;28;20066;-84
2021/09/09 07:21:21;;;;;;;17.55;10.05;;;;;;;18.75;100.00;100269.50;5058959;28;20020;-84
2021/09/09 07:23:47;;;;;;;20.88;9.65;;;;;;;19.83;100.00;100264.91;5060776;28;20021;-85
2021/09/09 07:26:12;;;;;;;20.60;9.05;;;;;;;19.50;100.00;100265.97;5059974;28;20027;-84
2021/09/09 07:28:38;;;;;;;20.35;9.43;;;;;;;19.94;100.00;100267.72;5060284;28;20020;-84
2021/09/09 07:31:03;;;;;;;18.67;9.52;;;;;;;19.95;100.00;100266.78;5077436;28;20039;-84
2021/09/09 07:33:29;;;;;;;20.00;9.02;;;;;;;19.68;99.89;100258.81;5058840;28;20021;-84
2021/09/09 07:35:54;;;;;;;16.23;9.15;;;;;;;20.02;98.07;100263.78;5058789;28;20040;-84
2021/09/09 07:38:19;;;;;;;27.58;10.07;;;;;;;20.26;97.29;100262.25;5057973;28;20029;-84
2021/09/09 07:40:44;;;;;;;19.05;9.35;;;;;;;21.01;93.09;100248.63;5077005;28;20103;-85
2021/09/09 07:43:10;;;;;;;15.05;9.20;;;;;;;20.74;92.02;100257.41;5058551;28;20052;-85
2021/09/09 07:45:36;;;;;;;17.52;8.25;;;;;;;20.05;94.79;100263.59;5058741;28;20092;-84
2021/09/09 07:48:01;;;;;;;17.15;9.18;;;;;;;20.39;95.17;100265.78;5058335;28;20392;-86
2021/09/09 07:50:26;;;;;;;21.67;9.00;;;;;;;20.44;92.66;100257.56;5058832;28;20070;-85
2021/09/09 07:52:52;;;;;;;13.95;8.48;;;;;;;20.22;93.19;100266.84;5076399;28;20078;-85
2021/09/09 07:55:18;;;;;;;19.00;8.90;;;;;;;20.98;91.68;100262.03;5058294;28;20021;-85
2021/09/09 07:57:44;;;;;;;17.40;8.48;;;;;;;20.45;92.06;100264.56;5076213;28;20028;-85
2021/09/09 08:00:11;;;;;;;12.82;8.38;;;;;;;20.48;91.89;100260.88;5058548;28;20066;-85
2021/09/09 08:02:36;;;;;;;14.57;8.65;;;;;;;20.65;92.09;100264.13;5057825;28;20024;-85
2021/09/09 08:05:02;;;;;;;15.93;8.75;;;;;;;21.31;88.29;100267.69;5077672;28;20127;-84
2021/09/09 08:07:28;;;;;;;15.18;8.63;;;;;;;20.83;90.64;100267.34;5077162;28;20016;-84
2021/09/09 08:09:53;;;;;;;15.93;8.30;;;;;;;20.71;91.91;100262.03;5076848;28;20036;-85
2021/09/09 08:12:18;;;;;;;15.70;8.90;;;;;;;21.04;88.91;100259.81;5063334;28;20024;-84
2021/09/09 08:14:43;;;;;;;15.75;8.18;;;;;;;21.07;90.39;100258.78;5066059;28;20032;-85
2021/09/09 08:17:08;;;;;;;14.97;8.80;;;;;;;21.55;87.58;100275.75;5116470;22;20480;-86
2021/09/09 08:19:34;;;;;;;17.20;8.73;;;;;;;21.17;87.14;100265.13;5095156;28;20277;-87
2021/09/09 08:21:59;;;;;;;16.02;8.57;;;;;;;21.80;83.67;100260.88;5077415;28;20081;-87
2021/09/09 08:24:25;;;;;;;13.90;7.57;;;;;;;21.68;83.41;100264.34;5076771;28;20028;-87
2021/09/09 08:26:50;;;;;;;12.77;7.53;;;;;;;21.92;80.71;100274.97;5095054;28;20458;-86
2021/09/09 08:29:15;;;;;;;17.45;6.97;;;;;;;22.17;78.36;100271.50;5077657;28;20032;-86
2021/09/09 08:31:40;;;;;;;16.10;8.48;;;;;;;21.95;77.94;100266.84;5076971;28;20496;-87
2021/09/09 08:34:06;;;;;;;15.57;7.78;;;;;;;21.75;76.34;100269.09;5094922;28;20056;-87
2021/09/09 08:36:32;;;;;;;18.30;8.35;;;;;;;21.74;78.94;100267.41;5076880;28;20024;-87
2021/09/09 08:38:57;;;;;;;13.55;7.47;;;;;;;21.41;78.26;100277.66;5094788;28;20115;-87
2021/09/09 08:41:22;;;;;;;14.25;7.38;;;;;;;21.53;79.19;100271.53;5076729;28;20425;-87
2021/09/09 08:43:48;;;;;;;13.00;7.53;;;;;;;22.10;77.21;100270.19;5077259;28;20016;-87
2021/09/09 08:46:16;;;;;;;13.45;7.90;;;;;;;22.67;74.64;100264.34;5076839;28;20016;-87
2021/09/09 08:48:46;;;;;;;16.23;7.95;;;;;;;23.46;69.52;100257.56;5077768;28;20016;-87
2021/09/09 08:51:13;;;;;;;16.15;7.93;;;;;;;23.13;68.87;100256.50;5076331;28;20031;-87
2021/09/09 08:53:39;;;;;;;10.95;6.72;;;;;;;22.81;70.77;100261.50;5076308;28;20115;-87
2021/09/09 08:56:05;;;;;;;15.20;7.07;;;;;;;22.21;74.15;100260.59;5094477;28;20035;-88
2021/09/09 08:58:33;;;;;;;22.95;7.43;;;;;;;23.77;69.45;100248.09;5075635;28;20028;-87
2021/09/09 09:01:11;;;;;;;18.25;7.32;;;;;;;22.61;70.11;100248.94;5075654;28;20546;-87
2021/09/09 09:03:51;;;;;;;17.90;7.10;;;;;;;23.11;67.05;100237.25;5075693;28;20031;-87
2021/09/09 09:06:26;;;;;;;18.48;7.50;;;;;;;23.52;65.43;100240.31;5075797;28;20016;-87
2021/09/09 09:08:53;;;;;;;12.30;6.20;;;;;;;23.83;65.38;100247.63;5076219;28;20403;-87
2021/09/09 09:11:24;;;;;;;12.98;6.15;;;;;;;23.96;63.25;100239.53;5075604;28;20472;-87
2021/09/09 09:13:49;;;;;;;14.18;6.60;;;;;;;23.96;64.78;100246.66;5075432;28;20484;-87
2021/09/09 09:16:15;;;;;;;14.90;6.50;;;;;;;24.58;63.38;100241.59;5093408;28;20038;-87
2021/09/09 09:18:45;;;;;;;11.65;6.20;;;;;;;24.35;63.45;100245.25;5075825;28;20637;-87
2021/09/09 09:21:11;;;;;;;16.77;6.00;;;;;;;23.77;65.91;100248.09;5094297;28;20035;-87
2021/09/09 09:23:38;;;;;;;11.02;6.57;;;;;;;24.34;65.08;100239.09;5076570;28;20028;-87
2021/09/09 09:26:05;;;;;;;18.77;6.63;;;;;;;23.66;64.01;100229.50;5075389;28;20408;-87
2021/09/09 09:28:52;;;;;;;10.57;6.47;;;;;;;24.45;62.07;100230.31;5075800;28;20028;-87
2021/09/09 09:31:21;;;;;;;13.50;5.72;;;;;;;23.24;63.70;100231.88;5075566;28;20020;-87
2021/09/09 09:33:54;;;;;;;14.00;6.45;;;;;;;23.27;64.70;100228.97;5075453;28;20024;-87
2021/09/09 09:36:39;;;;;;;11.57;6.47;;;;;;;24.82;59.87;100227.28;5076102;28;20197;-87
2021/09/09 09:39:17;;;;;;;13.38;6.47;;;;;;;24.41;60.55;100220.88;5075364;28;20087;-87
2021/09/09 09:42:00;;;;;;;11.60;6.18;;;;;;;24.45;61.96;100225.03;5093373;28;20151;-87
2021/09/09 09:44:33;;;;;;;12.23;6.93;;;;;;;25.19;60.15;100229.53;5093367;28;20031;-87
2021/09/09 09:47:12;;;;;;;11.25;7.45;;;;;;;24.02;63.45;100223.16;5075296;28;20031;-87
2021/09/09 09:49:42;;;;;;;13.05;6.45;;;;;;;24.67;61.30;100217.94;5075390;28;20032;-87
2021/09/09 09:52:09;;;;;;;14.07;6.93;;;;;;;24.34;61.92;100220.53;5093211;28;20389;-87
2021/09/09 09:54:35;;;;;;;13.60;6.97;;;;;;;24.92;59.93;100217.59;5093177;28;20027;-87
2021/09/09 09:57:01;;;;;;;12.90;7.05;;;;;;;25.37;60.57;100213.81;5075933;28;20020;-87
2021/09/09 09:59:27;;;;;;;21.13;6.35;;;;;;;26.09;56.86;100219.06;5075676;28;20031;-87
2021/09/09 10:01:52;;;;;;;12.73;6.63;;;;;;;25.93;56.56;100216.91;5092988;28;20387;-87
2021/09/09 10:04:19;;;;;;;11.47;6.53;;;;;;;26.37;55.36;100203.28;5074860;28;20024;-87
2021/09/09 10:06:47;;;;;;;15.73;6.85;;;;;;;25.37;57.16;100217.34;5074768;28;20265;-87
2021/09/09 10:09:13;;;;;;;12.30;6.93;;;;;;;24.85;57.66;100204.97;5093112;28;20498;-87
2021/09/09 10:11:39;;;;;;;14.68;6.57;;;;;;;25.59;56.70;100203.06;5078861;28;20028;-87
2021/09/09 10:14:06;;;;;;;13.95;6.40;;;;;;;26.18;57.06;100209.41;5080122;28;20028;-87
2021/09/09 10:16:42;;;;;;;11.18;6.15;;;;;;;24.90;56.64;100197.44;5079119;28;20032;-87
2021/09/09 10:19:11;;;;;;;16.77;6.78;;;;;;;25.51;58.32;100212.66;5079651;28;20027;-87
2021/09/09 10:21:46;;;;;;;11.95;6.35;;;;;;;25.47;58.17;100209.44;5078903;28;20024;-87
2021/09/09 10:24:18;;;;;;;16.55;6.63;;;;;;;25.47;57.69;100202.31;5078514;28;20027;-87
2021/09/09 10:26:50;;;;;;;16.02;6.78;;;;;;;25.77;55.06;100195.31;5096525;28;20024;-87
2021/09/09 10:29:40;;;;;;;11.63;6.50;;;;;;;25.45;58.43;100206.88;5078324;28;20048;-87
2021/09/09 10:32:06;;;;;;;11.32;6.53;;;;;;;26.18;55.53;100196.13;5078191;28;20115;-87
2021/09/09 10:34:31;;;;;;;15.35;5.90;;;;;;;25.30;56.77;100194.94;5078224;28;20103;-88
2021/09/09 10:36:56;;;;;;;12.98;6.55;;;;;;;26.58;53.96;100185.41;5078062;28;20020;-87
2021/09/09 10:39:48;;;;;;;10.07;6.03;;;;;;;26.03;55.02;100193.00;5096233;28;20039;-87
2021/09/09 10:42:36;;;;;;;13.93;7.07;;;;;;;25.76;56.34;100195.41;5096261;28;20490;-88
2021/09/09 10:45:02;;;;;;;12.82;6.55;;;;;;;27.21;52.80;100184.09;5078127;28;20028;-87
2021/09/09 10:47:29;;;;;;;14.13;6.28;;;;;;;27.03;53.46;100189.28;5077955;28;20437;-87
2021/09/09 10:50:05;;;;;;;12.73;6.60;;;;;;;27.57;49.85;100182.41;5078016;28;20081;-88
2021/09/09 10:52:30;;;;;;;13.68;7.10;;;;;;;26.78;52.33;100182.72;5078026;28;20073;-88
2021/09/09 10:55:12;;;;;;;14.30;7.32;;;;;;;27.68;50.14;100182.25;5078000;28;20429;-87
2021/09/09 10:57:39;;;;;;;12.20;5.72;;;;;;;26.79;50.17;100177.28;5095970;28;20096;-87
2021/09/09 11:00:05;;;;;;;10.90;6.35;;;;;;;27.00;49.60;100181.56;5096174;28;20074;-88
2021/09/09 11:02:33;;;;;;;11.70;6.47;;;;;;;26.27;51.58;100174.03;5077908;28;20081;-88
2021/09/09 11:05:07;;;;;;;10.32;4.93;;;;;;;25.92;52.60;100169.19;5077769;28;20020;-88
2021/09/09 11:07:32;;;;;;;12.20;6.25;;;;;;;27.06;52.18;100171.22;5077847;28;20035;-88